createdAt,value
2022-12-08T00:01:43.381Z,100096.19
2022-12-08T00:07:04.769Z,100095.22
2022-12-08T00:12:09.669Z,100084.50
2022-12-08T00:17:16.426Z,100090.84
2022-12-08T00:22:19.866Z,100080.31
2022-12-08T00:27:23.305Z,100078.81
2022-12-08T00:32:28.769Z,100072.41
2022-12-08T00:37:32.145Z,100068.41
2022-12-08T00:42:35.620Z,100061.78
2022-12-08T00:47:40.428Z,100064.09
2022-12-08T00:52:43.849Z,100056.78
2022-12-08T00:57:47.278Z,100060.09
2022-12-08T01:02:52.086Z,100052.22
2022-12-08T01:07:55.563Z,100054.78
2022-12-08T01:12:59.570Z,100045.81
2022-12-08T01:18:04.435Z,100046.25
2022-12-08T01:23:07.781Z,100052.63
2022-12-08T01:28:11.255Z,100059.34
2022-12-08T01:33:16.045Z,100051.03
2022-12-08T01:38:23.742Z,100043.00
2022-12-08T01:43:27.345Z,100036.28
2022-12-08T01:48:32.393Z,100044.81
2022-12-08T01:53:35.973Z,100049.22
2022-12-08T01:58:42.809Z,100045.97
2022-12-08T02:03:50.375Z,100038.25
2022-12-08T02:08:55.155Z,100035.59
2022-12-08T02:13:59.248Z,100031.53
2022-12-08T02:19:32.331Z,100014.72
2022-12-08T02:24:39.108Z,100009.22
2022-12-08T02:30:07.954Z,100002.53
2022-12-08T02:35:14.969Z,100006.03
2022-12-08T02:40:23.921Z,100003.69
2022-12-08T02:45:31.540Z,99996.56
2022-12-08T02:50:36.419Z,99990.50
2022-12-08T02:55:48.954Z,99989.38
2022-12-08T03:01:12.929Z,99983.31
2022-12-08T03:06:25.653Z,99986.69
2022-12-08T03:11:35.720Z,99989.13
2022-12-08T03:16:41.321Z,99977.97
2022-12-08T03:21:50.977Z,99971.22
2022-12-08T03:26:58.588Z,99968.16
2022-12-08T03:32:06.916Z,99949.56
2022-12-08T03:37:12.022Z,99947.09
2022-12-08T03:42:15.541Z,99952.69
2022-12-08T03:47:19.070Z,99943.41
2022-12-08T03:52:23.967Z,99938.38
2022-12-08T03:57:27.428Z,99933.41
2022-12-08T04:02:30.946Z,99926.72
2022-12-08T04:07:35.950Z,99929.19
2022-12-08T04:12:39.517Z,99919.00
2022-12-08T04:17:42.997Z,99913.75
2022-12-08T04:22:47.922Z,99915.09
2022-12-08T04:27:51.705Z,99910.19
2022-12-08T04:32:55.517Z,99902.31
2022-12-08T04:38:00.431Z,99910.56
2022-12-08T04:43:04.041Z,99909.94
2022-12-08T04:48:08.156Z,99890.81
2022-12-08T04:53:14.113Z,99900.19
2022-12-08T04:58:19.399Z,99895.44
2022-12-08T05:03:28.461Z,99887.66
2022-12-08T05:08:33.903Z,99893.75
2022-12-08T05:13:37.649Z,99887.47
2022-12-08T05:18:41.732Z,99882.59
2022-12-08T05:23:46.635Z,99872.91
2022-12-08T05:28:50.110Z,99879.22
2022-12-08T05:33:54.033Z,99871.16
2022-12-08T05:38:59.210Z,99863.88
2022-12-08T05:44:02.772Z,99858.81
2022-12-08T05:49:06.272Z,99855.41
2022-12-08T05:54:11.190Z,99857.28
2022-12-08T05:59:14.689Z,99852.13
2022-12-08T06:04:18.273Z,99859.78
2022-12-08T06:09:23.208Z,99850.25
2022-12-08T06:14:26.726Z,99848.06
2022-12-08T06:19:30.349Z,99851.44
2022-12-08T06:24:35.381Z,99850.53
2022-12-08T06:29:38.868Z,99846.31
2022-12-08T06:34:42.329Z,99840.72
2022-12-08T06:39:47.241Z,99851.50
2022-12-08T06:44:51.578Z,99843.16
2022-12-08T06:49:55.075Z,99849.69
2022-12-08T06:55:00.018Z,99857.84
2022-12-08T07:00:05.120Z,99851.25
2022-12-08T07:05:09.175Z,99860.88
2022-12-08T07:10:14.042Z,99866.28
2022-12-08T07:15:17.774Z,99873.78
2022-12-08T07:20:21.482Z,99864.72
2022-12-08T07:25:26.716Z,99876.50
2022-12-08T07:30:30.350Z,99868.72
2022-12-08T07:35:35.184Z,99867.28
2022-12-08T07:40:41.032Z,99869.00
2022-12-08T07:45:44.571Z,99867.91
2022-12-08T07:50:48.041Z,99871.75
2022-12-08T07:55:52.817Z,99864.50
2022-12-08T08:00:56.317Z,99871.09
2022-12-08T08:06:03.844Z,99872.75
2022-12-08T08:11:14.600Z,99877.97
2022-12-08T08:16:22.600Z,99872.94
2022-12-08T08:26:51.276Z,99875.50
2022-12-08T08:31:55.969Z,99878.63
2022-12-08T08:36:59.407Z,99879.50
2022-12-08T08:42:04.296Z,99887.34
2022-12-08T08:47:07.859Z,99884.56
2022-12-08T08:52:11.632Z,99879.25
2022-12-08T08:57:19.469Z,99885.31
2022-12-08T09:02:25.691Z,99889.69
2022-12-08T09:07:29.108Z,99895.97
2022-12-08T09:12:33.887Z,99896.78
2022-12-08T09:17:38.175Z,99903.31
2022-12-08T09:22:41.655Z,99899.94
2022-12-08T09:27:46.898Z,99906.72
2022-12-08T09:32:50.312Z,99906.56
2022-12-08T09:37:53.697Z,99903.25
2022-12-08T09:43:26.204Z,99908.81
2022-12-08T09:48:36.916Z,99915.81
2022-12-08T09:53:43.868Z,99897.84
2022-12-08T09:58:52.646Z,99896.47
2022-12-08T10:03:56.447Z,99877.97
2022-12-08T10:09:04.548Z,99881.72
2022-12-08T10:14:16.842Z,99885.09
2022-12-08T10:19:22.412Z,99882.63
2022-12-08T10:24:28.056Z,99882.50
2022-12-08T10:29:32.803Z,99874.25
2022-12-08T10:34:36.173Z,99884.06
2022-12-08T10:39:43.676Z,99869.53
2022-12-08T10:44:56.955Z,99868.06
2022-12-08T10:50:18.958Z,99870.81
2022-12-08T10:55:23.200Z,99862.13
2022-12-08T11:00:29.132Z,99860.56
2022-12-08T11:05:34.978Z,99857.34
2022-12-08T11:10:44.066Z,99849.91
2022-12-08T11:15:48.878Z,99845.00
2022-12-08T11:21:01.694Z,99854.56
2022-12-08T11:26:11.683Z,99858.22
2022-12-08T11:31:24.071Z,99862.97
2022-12-08T11:36:28.602Z,99854.25
2022-12-08T11:41:35.584Z,99868.00
2022-12-08T11:46:45.051Z,99873.00
2022-12-08T11:51:54.581Z,99860.78
2022-12-08T11:57:00.521Z,99860.09
2022-12-08T12:02:06.545Z,99857.50
2022-12-08T12:07:26.562Z,99860.50
2022-12-08T12:12:43.931Z,99853.13
2022-12-08T12:17:52.016Z,99867.03
2022-12-08T12:22:59.183Z,99859.41
2022-12-08T12:28:04.867Z,99852.69
2022-12-08T12:33:13.402Z,99857.94
2022-12-08T12:38:40.233Z,99851.34
2022-12-08T12:44:25.084Z,99861.06
2022-12-08T12:49:51.061Z,99853.03
2022-12-08T12:55:42.240Z,99857.16
2022-12-08T13:00:46.996Z,99852.66
2022-12-08T13:05:52.817Z,99854.22
2022-12-08T13:11:01.065Z,99860.75
2022-12-08T13:16:19.246Z,99859.41
2022-12-08T13:21:25.060Z,99851.22
2022-12-08T13:26:29.185Z,99846.53
2022-12-08T13:31:46.628Z,99840.06
2022-12-08T13:37:02.482Z,99855.78
2022-12-08T13:42:08.585Z,99852.03
2022-12-08T13:47:33.411Z,99868.41
2022-12-08T13:58:06.579Z,99867.00
2022-12-08T14:03:14.203Z,99868.69
2022-12-08T14:08:57.070Z,99884.41
2022-12-08T14:13:45.637Z,99887.44
2022-12-08T14:18:52.278Z,99875.63
2022-12-08T14:23:55.730Z,99885.25
2022-12-08T14:28:59.232Z,99873.97
2022-12-08T14:34:04.141Z,99874.16
2022-12-08T14:39:07.650Z,99877.69
2022-12-08T14:44:24.412Z,99873.28
2022-12-08T14:49:36.430Z,99880.84
2022-12-08T14:54:40.611Z,99877.47
2022-12-08T14:59:44.702Z,99884.06
2022-12-08T15:04:50.936Z,99889.09
2022-12-08T15:10:20.486Z,99891.38
2022-12-08T15:15:24.572Z,99885.28
2022-12-08T15:20:35.613Z,99890.38
2022-12-08T15:25:39.303Z,99895.47
2022-12-08T15:30:42.925Z,99894.97
2022-12-08T15:35:48.431Z,99898.22
2022-12-08T15:40:52.340Z,99893.91
2022-12-08T15:46:00.253Z,99897.38
2022-12-08T15:51:05.355Z,99904.81
2022-12-08T16:01:32.965Z,99918.28
2022-12-08T16:07:19.782Z,99910.25
2022-12-08T16:12:19.261Z,99918.22
2022-12-08T16:17:22.760Z,99917.13
2022-12-08T16:28:12.475Z,99926.84
2022-12-08T16:33:17.713Z,99935.81
2022-12-08T16:38:22.681Z,99940.09
2022-12-08T16:43:26.284Z,99946.16
2022-12-08T16:48:29.788Z,99942.19
2022-12-08T16:53:34.623Z,99938.41
2022-12-08T16:58:38.090Z,99949.44
2022-12-08T17:03:51.620Z,99958.53
2022-12-08T17:09:06.280Z,99962.53
2022-12-08T17:14:10.105Z,99957.19
2022-12-08T17:19:15.344Z,99955.53
2022-12-08T17:24:22.226Z,99956.28
2022-12-08T17:29:26.092Z,99947.78
2022-12-08T17:34:29.526Z,99948.47
2022-12-08T17:39:34.424Z,99963.28
2022-12-08T17:44:37.948Z,99966.03
2022-12-08T17:49:41.421Z,99971.09
2022-12-08T17:54:46.279Z,99971.38
2022-12-08T17:59:49.734Z,99971.88
2022-12-08T18:04:53.148Z,99971.13
2022-12-08T18:09:58.014Z,99967.63
2022-12-08T18:15:01.439Z,99965.78
2022-12-08T18:20:06.350Z,99964.47
2022-12-08T18:25:12.180Z,99962.00
2022-12-08T18:30:18.009Z,99968.22
2022-12-08T18:35:21.520Z,99973.91
2022-12-08T18:40:26.423Z,99972.63
2022-12-08T18:45:29.867Z,99967.66
2022-12-08T18:50:33.392Z,99974.44
2022-12-08T18:55:39.672Z,99976.16
2022-12-08T19:00:43.311Z,99969.88
2022-12-08T19:05:46.857Z,99980.03
2022-12-08T19:10:51.753Z,99984.34
2022-12-08T19:15:55.375Z,99998.88
2022-12-08T19:20:59.614Z,100000.59
2022-12-08T19:26:05.041Z,100002.44
2022-12-08T19:31:09.772Z,100001.59
2022-12-08T19:36:17.948Z,100003.03
2022-12-08T19:41:52.735Z,99997.56
2022-12-08T19:46:56.973Z,100005.03
2022-12-08T19:52:00.701Z,100002.97
2022-12-08T19:57:06.077Z,99997.53
2022-12-08T20:02:11.154Z,100010.22
2022-12-08T20:07:14.743Z,100011.34
2022-12-08T20:12:19.531Z,100005.34
2022-12-08T20:17:22.972Z,100014.66
2022-12-08T20:22:26.458Z,100015.38
2022-12-08T20:27:31.487Z,100020.28
2022-12-08T20:32:34.889Z,100019.38
2022-12-08T20:37:38.255Z,100007.59
2022-12-08T20:42:43.361Z,100015.88
2022-12-08T20:47:46.697Z,100017.31
2022-12-08T20:52:50.129Z,100015.53
2022-12-08T20:57:55.137Z,100027.88
2022-12-08T21:02:58.685Z,100030.41
2022-12-08T21:08:02.454Z,100034.66
2022-12-08T21:13:08.137Z,100026.19
2022-12-08T21:18:11.656Z,100030.44
2022-12-08T21:23:15.500Z,100022.16
2022-12-08T21:28:20.306Z,100037.44
2022-12-08T21:33:23.764Z,100036.09
2022-12-08T21:38:28.356Z,100031.34
2022-12-08T21:43:33.253Z,100039.88
2022-12-08T21:48:36.908Z,100045.69
2022-12-08T21:53:40.478Z,100038.53
2022-12-08T21:58:45.263Z,100036.41
2022-12-08T22:03:48.816Z,100043.63
2022-12-08T22:08:52.448Z,100046.41
2022-12-08T22:13:57.322Z,100039.66
2022-12-08T22:19:01.072Z,100045.06
2022-12-08T22:24:04.607Z,100036.50
2022-12-08T22:29:09.940Z,100030.88
2022-12-08T22:34:14.415Z,100033.72
2022-12-08T22:39:17.883Z,100029.81
2022-12-08T22:44:22.711Z,100040.19
2022-12-08T22:49:26.444Z,100041.25
2022-12-08T22:54:29.861Z,100031.13
2022-12-08T22:59:34.789Z,100039.28
2022-12-08T23:04:38.492Z,100038.59
2022-12-08T23:09:42.219Z,100048.59
2022-12-08T23:14:47.923Z,100040.81
2022-12-08T23:19:52.356Z,100043.69
2022-12-08T23:24:55.756Z,100038.75
2022-12-08T23:30:00.533Z,100037.22
2022-12-08T23:35:03.990Z,100040.13
2022-12-08T23:40:08.885Z,100036.66
2022-12-08T23:45:14.134Z,100035.13
2022-12-08T23:50:17.665Z,100024.97
2022-12-08T23:55:21.176Z,100031.88
